sensor_id;sensor_type;location;lat;lon;timestamp;P1;durP1;ratioP1;P2;durP2;ratioP2
9409;SDS011;4744;52.576;13.568;2022-08-14T00:01:17;4.68;;;4.45;;
9409;SDS011;4744;52.576;13.568;2022-08-14T00:03:44;5.00;;;4.60;;
9409;SDS011;4744;52.576;13.568;2022-08-14T00:06:11;5.35;;;4.72;;
9409;SDS011;4744;52.576;13.568;2022-08-14T00:08:40;5.22;;;4.82;;
9409;SDS011;4744;52.576;13.568;2022-08-14T00:11:07;4.40;;;4.20;;
9409;SDS011;4744;52.576;13.568;2022-08-14T00:13:34;5.18;;;4.85;;
9409;SDS011;4744;52.576;13.568;2022-08-14T00:16:03;4.35;;;4.05;;
9409;SDS011;4744;52.576;13.568;2022-08-14T00:18:30;4.18;;;3.90;;
9409;SDS011;4744;52.576;13.568;2022-08-14T00:20:57;4.80;;;4.38;;
9409;SDS011;4744;52.576;13.568;2022-08-14T00:23:24;5.47;;;5.03;;
9409;SDS011;4744;52.576;13.568;2022-08-14T00:25:52;8.35;;;5.57;;
9409;SDS011;4744;52.576;13.568;2022-08-14T00:28:21;7.03;;;5.35;;
9409;SDS011;4744;52.576;13.568;2022-08-14T00:30:51;5.45;;;5.05;;
9409;SDS011;4744;52.576;13.568;2022-08-14T00:33:22;5.50;;;5.10;;
9409;SDS011;4744;52.576;13.568;2022-08-14T00:35:49;5.00;;;4.60;;
9409;SDS011;4744;52.576;13.568;2022-08-14T00:38:17;5.30;;;4.95;;
9409;SDS011;4744;52.576;13.568;2022-08-14T00:40:45;5.28;;;4.88;;
9409;SDS011;4744;52.576;13.568;2022-08-14T00:43:12;5.22;;;4.82;;
9409;SDS011;4744;52.576;13.568;2022-08-14T00:45:39;5.65;;;5.25;;
9409;SDS011;4744;52.576;13.568;2022-08-14T00:48:06;5.25;;;4.93;;
9409;SDS011;4744;52.576;13.568;2022-08-14T00:50:35;5.00;;;4.68;;
9409;SDS011;4744;52.576;13.568;2022-08-14T00:53:03;4.82;;;4.53;;
9409;SDS011;4744;52.576;13.568;2022-08-14T00:55:31;4.90;;;4.60;;
9409;SDS011;4744;52.576;13.568;2022-08-14T00:57:59;4.75;;;4.45;;
9409;SDS011;4744;52.576;13.568;2022-08-14T01:00:44;4.50;;;4.20;;
9409;SDS011;4744;52.576;13.568;2022-08-14T01:03:14;4.78;;;4.47;;
9409;SDS011;4744;52.576;13.568;2022-08-14T01:05:45;4.63;;;4.32;;
9409;SDS011;4744;52.576;13.568;2022-08-14T01:08:14;5.28;;;4.88;;
9409;SDS011;4744;52.576;13.568;2022-08-14T01:10:43;4.82;;;4.53;;
9409;SDS011;4744;52.576;13.568;2022-08-14T01:13:19;4.95;;;4.65;;
9409;SDS011;4744;52.576;13.568;2022-08-14T01:15:48;5.28;;;4.90;;
9409;SDS011;4744;52.576;13.568;2022-08-14T01:18:17;4.80;;;4.43;;
9409;SDS011;4744;52.576;13.568;2022-08-14T01:21:04;5.15;;;4.75;;
9409;SDS011;4744;52.576;13.568;2022-08-14T01:23:36;5.13;;;4.82;;
9409;SDS011;4744;52.576;13.568;2022-08-14T01:26:05;4.60;;;4.28;;
9409;SDS011;4744;52.576;13.568;2022-08-14T01:28:32;4.72;;;4.40;;
9409;SDS011;4744;52.576;13.568;2022-08-14T01:31:02;4.68;;;4.38;;
9409;SDS011;4744;52.576;13.568;2022-08-14T01:33:34;4.88;;;4.57;;
9409;SDS011;4744;52.576;13.568;2022-08-14T01:36:04;4.70;;;4.40;;
9409;SDS011;4744;52.576;13.568;2022-08-14T01:38:35;4.68;;;4.38;;
9409;SDS011;4744;52.576;13.568;2022-08-14T01:41:04;4.28;;;4.07;;
9409;SDS011;4744;52.576;13.568;2022-08-14T01:43:41;4.57;;;4.28;;
9409;SDS011;4744;52.576;13.568;2022-08-14T01:46:09;4.50;;;4.20;;
9409;SDS011;4744;52.576;13.568;2022-08-14T01:48:36;4.57;;;4.28;;
9409;SDS011;4744;52.576;13.568;2022-08-14T01:51:08;4.40;;;4.10;;
9409;SDS011;4744;52.576;13.568;2022-08-14T01:53:37;4.50;;;4.20;;
9409;SDS011;4744;52.576;13.568;2022-08-14T01:56:05;4.70;;;4.40;;
9409;SDS011;4744;52.576;13.568;2022-08-14T01:58:32;4.28;;;4.05;;
9409;SDS011;4744;52.576;13.568;2022-08-14T02:00:59;4.70;;;4.40;;
9409;SDS011;4744;52.576;13.568;2022-08-14T02:03:29;5.32;;;4.93;;
9409;SDS011;4744;52.576;13.568;2022-08-14T02:05:59;4.70;;;4.40;;
9409;SDS011;4744;52.576;13.568;2022-08-14T02:08:27;5.32;;;4.93;;
9409;SDS011;4744;52.576;13.568;2022-08-14T02:10:57;5.32;;;5.03;;
9409;SDS011;4744;52.576;13.568;2022-08-14T02:13:46;4.75;;;4.45;;
9409;SDS011;4744;52.576;13.568;2022-08-14T02:16:16;5.05;;;4.75;;
9409;SDS011;4744;52.576;13.568;2022-08-14T02:18:44;4.63;;;4.32;;
9409;SDS011;4744;52.576;13.568;2022-08-14T02:21:13;5.20;;;4.80;;
9409;SDS011;4744;52.576;13.568;2022-08-14T02:23:43;5.20;;;4.90;;
9409;SDS011;4744;52.576;13.568;2022-08-14T02:26:15;5.65;;;5.25;;
9409;SDS011;4744;52.576;13.568;2022-08-14T02:28:44;5.90;;;5.50;;
9409;SDS011;4744;52.576;13.568;2022-08-14T02:31:12;5.78;;;5.38;;
9409;SDS011;4744;52.576;13.568;2022-08-14T02:33:39;5.53;;;5.18;;
9409;SDS011;4744;52.576;13.568;2022-08-14T02:36:08;5.25;;;4.85;;
9409;SDS011;4744;52.576;13.568;2022-08-14T02:38:37;5.05;;;4.75;;
9409;SDS011;4744;52.576;13.568;2022-08-14T02:41:07;4.75;;;4.45;;
9409;SDS011;4744;52.576;13.568;2022-08-14T02:43:37;5.45;;;5.05;;
9409;SDS011;4744;52.576;13.568;2022-08-14T02:46:05;5.53;;;5.13;;
9409;SDS011;4744;52.576;13.568;2022-08-14T02:48:34;5.35;;;5.05;;
9409;SDS011;4744;52.576;13.568;2022-08-14T02:51:04;4.93;;;4.50;;
9409;SDS011;4744;52.576;13.568;2022-08-14T02:53:32;5.20;;;4.65;;
9409;SDS011;4744;52.576;13.568;2022-08-14T02:55:59;5.05;;;4.75;;
9409;SDS011;4744;52.576;13.568;2022-08-14T02:58:28;5.18;;;4.88;;
9409;SDS011;4744;52.576;13.568;2022-08-14T03:00:57;5.22;;;4.93;;
9409;SDS011;4744;52.576;13.568;2022-08-14T03:03:25;5.63;;;5.22;;
9409;SDS011;4744;52.576;13.568;2022-08-14T03:05:52;5.72;;;5.32;;
9409;SDS011;4744;52.576;13.568;2022-08-14T03:08:19;5.07;;;4.78;;
9409;SDS011;4744;52.576;13.568;2022-08-14T03:10:46;5.60;;;5.20;;
9409;SDS011;4744;52.576;13.568;2022-08-14T03:13:14;5.10;;;4.75;;
9409;SDS011;4744;52.576;13.568;2022-08-14T03:15:40;5.97;;;5.57;;
9409;SDS011;4744;52.576;13.568;2022-08-14T03:18:12;5.90;;;5.50;;
9409;SDS011;4744;52.576;13.568;2022-08-14T03:20:39;5.63;;;5.28;;
9409;SDS011;4744;52.576;13.568;2022-08-14T03:23:06;6.20;;;5.80;;
9409;SDS011;4744;52.576;13.568;2022-08-14T03:25:33;6.15;;;5.35;;
9409;SDS011;4744;52.576;13.568;2022-08-14T03:28:01;5.38;;;5.03;;
9409;SDS011;4744;52.576;13.568;2022-08-14T03:30:29;5.20;;;4.90;;
9409;SDS011;4744;52.576;13.568;2022-08-14T03:32:56;5.30;;;5.00;;
9409;SDS011;4744;52.576;13.568;2022-08-14T03:35:25;5.70;;;5.30;;
9409;SDS011;4744;52.576;13.568;2022-08-14T03:37:55;5.88;;;5.47;;
9409;SDS011;4744;52.576;13.568;2022-08-14T03:40:29;5.25;;;4.95;;
9409;SDS011;4744;52.576;13.568;2022-08-14T03:42:55;5.25;;;4.95;;
9409;SDS011;4744;52.576;13.568;2022-08-14T03:45:24;5.00;;;4.70;;
9409;SDS011;4744;52.576;13.568;2022-08-14T03:47:50;5.32;;;4.93;;
9409;SDS011;4744;52.576;13.568;2022-08-14T03:50:17;5.22;;;4.82;;
9409;SDS011;4744;52.576;13.568;2022-08-14T03:52:45;5.70;;;5.30;;
9409;SDS011;4744;52.576;13.568;2022-08-14T03:55:12;6.30;;;5.90;;
9409;SDS011;4744;52.576;13.568;2022-08-14T03:57:39;5.95;;;5.47;;
9409;SDS011;4744;52.576;13.568;2022-08-14T04:00:08;5.90;;;5.50;;
9409;SDS011;4744;52.576;13.568;2022-08-14T04:02:37;5.63;;;5.22;;
9409;SDS011;4744;52.576;13.568;2022-08-14T04:05:05;6.03;;;5.63;;
9409;SDS011;4744;52.576;13.568;2022-08-14T04:07:33;5.45;;;5.05;;
9409;SDS011;4744;52.576;13.568;2022-08-14T04:10:05;6.55;;;6.05;;
9409;SDS011;4744;52.576;13.568;2022-08-14T04:12:33;6.30;;;5.80;;
9409;SDS011;4744;52.576;13.568;2022-08-14T04:15:00;6.10;;;5.70;;
9409;SDS011;4744;52.576;13.568;2022-08-14T04:17:27;5.70;;;5.32;;
9409;SDS011;4744;52.576;13.568;2022-08-14T04:19:55;6.55;;;6.05;;
9409;SDS011;4744;52.576;13.568;2022-08-14T04:22:23;6.07;;;5.57;;
9409;SDS011;4744;52.576;13.568;2022-08-14T04:24:50;5.75;;;5.35;;
9409;SDS011;4744;52.576;13.568;2022-08-14T04:27:18;5.72;;;5.38;;
9409;SDS011;4744;52.576;13.568;2022-08-14T04:29:45;5.93;;;5.43;;
9409;SDS011;4744;52.576;13.568;2022-08-14T04:32:13;5.53;;;5.10;;
9409;SDS011;4744;52.576;13.568;2022-08-14T04:34:40;6.15;;;5.68;;
9409;SDS011;4744;52.576;13.568;2022-08-14T04:37:07;5.85;;;5.45;;
9409;SDS011;4744;52.576;13.568;2022-08-14T04:39:51;6.00;;;5.57;;
9409;SDS011;4744;52.576;13.568;2022-08-14T04:42:38;6.15;;;5.60;;
9409;SDS011;4744;52.576;13.568;2022-08-14T04:45:23;5.03;;;4.72;;
9409;SDS011;4744;52.576;13.568;2022-08-14T04:47:56;5.28;;;4.88;;
9409;SDS011;4744;52.576;13.568;2022-08-14T04:50:39;5.38;;;4.97;;
9409;SDS011;4744;52.576;13.568;2022-08-14T04:53:07;5.45;;;5.05;;
9409;SDS011;4744;52.576;13.568;2022-08-14T04:55:37;5.55;;;5.15;;
9409;SDS011;4744;52.576;13.568;2022-08-14T04:58:05;6.05;;;5.53;;
9409;SDS011;4744;52.576;13.568;2022-08-14T05:00:33;5.78;;;5.38;;
9409;SDS011;4744;52.576;13.568;2022-08-14T05:03:00;5.90;;;5.50;;
9409;SDS011;4744;52.576;13.568;2022-08-14T05:05:28;5.60;;;5.20;;
9409;SDS011;4744;52.576;13.568;2022-08-14T05:08:02;6.35;;;5.85;;
9409;SDS011;4744;52.576;13.568;2022-08-14T05:10:34;6.25;;;5.85;;
9409;SDS011;4744;52.576;13.568;2022-08-14T05:13:02;6.05;;;5.65;;
9409;SDS011;4744;52.576;13.568;2022-08-14T05:15:32;6.45;;;5.95;;
9409;SDS011;4744;52.576;13.568;2022-08-14T05:18:00;5.97;;;5.57;;
9409;SDS011;4744;52.576;13.568;2022-08-14T05:20:27;5.82;;;5.32;;
9409;SDS011;4744;52.576;13.568;2022-08-14T05:22:55;5.65;;;5.15;;
9409;SDS011;4744;52.576;13.568;2022-08-14T05:25:23;5.57;;;5.10;;
9409;SDS011;4744;52.576;13.568;2022-08-14T05:27:50;5.43;;;5.03;;
9409;SDS011;4744;52.576;13.568;2022-08-14T05:30:17;5.65;;;5.25;;
9409;SDS011;4744;52.576;13.568;2022-08-14T05:32:45;6.00;;;5.50;;
9409;SDS011;4744;52.576;13.568;2022-08-14T05:35:12;6.80;;;6.30;;
9409;SDS011;4744;52.576;13.568;2022-08-14T05:37:39;6.93;;;6.43;;
9409;SDS011;4744;52.576;13.568;2022-08-14T05:40:06;6.47;;;5.97;;
9409;SDS011;4744;52.576;13.568;2022-08-14T05:42:35;6.45;;;5.95;;
9409;SDS011;4744;52.576;13.568;2022-08-14T05:45:03;6.50;;;6.00;;
9409;SDS011;4744;52.576;13.568;2022-08-14T05:47:32;6.18;;;5.78;;
9409;SDS011;4744;52.576;13.568;2022-08-14T05:50:10;7.57;;;6.97;;
9409;SDS011;4744;52.576;13.568;2022-08-14T05:52:39;7.38;;;6.68;;
9409;SDS011;4744;52.576;13.568;2022-08-14T05:55:06;7.20;;;6.60;;
9409;SDS011;4744;52.576;13.568;2022-08-14T05:57:44;7.03;;;6.53;;
9409;SDS011;4744;52.576;13.568;2022-08-14T06:00:16;7.03;;;6.53;;
9409;SDS011;4744;52.576;13.568;2022-08-14T06:02:45;6.55;;;5.95;;
9409;SDS011;4744;52.576;13.568;2022-08-14T06:05:13;7.28;;;6.57;;
9409;SDS011;4744;52.576;13.568;2022-08-14T06:07:40;6.40;;;5.97;;
9409;SDS011;4744;52.576;13.568;2022-08-14T06:10:08;5.93;;;5.50;;
9409;SDS011;4744;52.576;13.568;2022-08-14T06:12:36;5.82;;;5.47;;
9409;SDS011;4744;52.576;13.568;2022-08-14T06:15:04;6.35;;;5.85;;
9409;SDS011;4744;52.576;13.568;2022-08-14T06:17:41;6.53;;;6.03;;
9409;SDS011;4744;52.576;13.568;2022-08-14T06:20:09;6.18;;;5.57;;
9409;SDS011;4744;52.576;13.568;2022-08-14T06:22:38;6.70;;;6.10;;
9409;SDS011;4744;52.576;13.568;2022-08-14T06:25:07;6.60;;;5.90;;
9409;SDS011;4744;52.576;13.568;2022-08-14T06:27:35;6.72;;;6.03;;
9409;SDS011;4744;52.576;13.568;2022-08-14T06:30:03;6.60;;;6.10;;
9409;SDS011;4744;52.576;13.568;2022-08-14T06:32:31;6.18;;;5.68;;
9409;SDS011;4744;52.576;13.568;2022-08-14T06:34:58;6.45;;;5.88;;
9409;SDS011;4744;52.576;13.568;2022-08-14T06:37:25;7.30;;;6.70;;
9409;SDS011;4744;52.576;13.568;2022-08-14T06:39:54;7.15;;;6.45;;
9409;SDS011;4744;52.576;13.568;2022-08-14T06:42:20;6.70;;;6.15;;
9409;SDS011;4744;52.576;13.568;2022-08-14T06:44:47;7.38;;;6.57;;
9409;SDS011;4744;52.576;13.568;2022-08-14T06:47:14;6.93;;;6.43;;
9409;SDS011;4744;52.576;13.568;2022-08-14T06:49:41;7.13;;;6.43;;
9409;SDS011;4744;52.576;13.568;2022-08-14T06:52:07;6.53;;;5.97;;
9409;SDS011;4744;52.576;13.568;2022-08-14T06:54:34;7.82;;;7.10;;
9409;SDS011;4744;52.576;13.568;2022-08-14T06:57:02;6.50;;;5.80;;
9409;SDS011;4744;52.576;13.568;2022-08-14T06:59:29;5.65;;;5.25;;
9409;SDS011;4744;52.576;13.568;2022-08-14T07:01:56;7.20;;;6.60;;
9409;SDS011;4744;52.576;13.568;2022-08-14T07:04:40;6.72;;;6.20;;
9409;SDS011;4744;52.576;13.568;2022-08-14T07:07:24;5.90;;;5.50;;
9409;SDS011;4744;52.576;13.568;2022-08-14T07:09:51;6.85;;;6.35;;
9409;SDS011;4744;52.576;13.568;2022-08-14T07:12:19;6.75;;;6.15;;
9409;SDS011;4744;52.576;13.568;2022-08-14T07:14:46;7.35;;;6.68;;
9409;SDS011;4744;52.576;13.568;2022-08-14T07:17:13;6.85;;;6.35;;
9409;SDS011;4744;52.576;13.568;2022-08-14T07:19:39;6.72;;;6.18;;
9409;SDS011;4744;52.576;13.568;2022-08-14T07:22:06;6.20;;;5.70;;
9409;SDS011;4744;52.576;13.568;2022-08-14T07:24:33;5.35;;;4.95;;
9409;SDS011;4744;52.576;13.568;2022-08-14T07:27:00;6.20;;;5.47;;
9409;SDS011;4744;52.576;13.568;2022-08-14T07:29:28;6.53;;;6.03;;
9409;SDS011;4744;52.576;13.568;2022-08-14T07:31:55;6.57;;;6.07;;
9409;SDS011;4744;52.576;13.568;2022-08-14T07:34:22;6.45;;;5.95;;
9409;SDS011;4744;52.576;13.568;2022-08-14T07:36:49;6.20;;;5.70;;
9409;SDS011;4744;52.576;13.568;2022-08-14T07:39:16;6.20;;;5.80;;
9409;SDS011;4744;52.576;13.568;2022-08-14T07:41:43;6.35;;;5.90;;
9409;SDS011;4744;52.576;13.568;2022-08-14T07:44:10;5.85;;;5.40;;
9409;SDS011;4744;52.576;13.568;2022-08-14T07:46:39;5.68;;;5.28;;
9409;SDS011;4744;52.576;13.568;2022-08-14T07:49:06;5.53;;;5.18;;
9409;SDS011;4744;52.576;13.568;2022-08-14T07:51:33;6.10;;;5.57;;
9409;SDS011;4744;52.576;13.568;2022-08-14T07:54:00;7.43;;;5.47;;
9409;SDS011;4744;52.576;13.568;2022-08-14T07:56:26;5.60;;;5.18;;
9409;SDS011;4744;52.576;13.568;2022-08-14T07:58:53;7.10;;;5.10;;
9409;SDS011;4744;52.576;13.568;2022-08-14T08:01:20;5.63;;;5.10;;
9409;SDS011;4744;52.576;13.568;2022-08-14T08:03:49;5.50;;;5.13;;
9409;SDS011;4744;52.576;13.568;2022-08-14T08:06:16;5.72;;;5.22;;
9409;SDS011;4744;52.576;13.568;2022-08-14T08:08:43;5.30;;;5.00;;
9409;SDS011;4744;52.576;13.568;2022-08-14T08:11:11;5.43;;;5.03;;
9409;SDS011;4744;52.576;13.568;2022-08-14T08:13:39;4.82;;;4.45;;
9409;SDS011;4744;52.576;13.568;2022-08-14T08:16:07;5.68;;;5.28;;
9409;SDS011;4744;52.576;13.568;2022-08-14T08:18:34;5.70;;;5.20;;
9409;SDS011;4744;52.576;13.568;2022-08-14T08:21:02;5.05;;;4.75;;
9409;SDS011;4744;52.576;13.568;2022-08-14T08:23:30;5.25;;;4.80;;
9409;SDS011;4744;52.576;13.568;2022-08-14T08:25:58;4.85;;;4.45;;
9409;SDS011;4744;52.576;13.568;2022-08-14T08:28:25;5.38;;;4.85;;
9409;SDS011;4744;52.576;13.568;2022-08-14T08:30:53;5.30;;;4.72;;
9409;SDS011;4744;52.576;13.568;2022-08-14T08:33:21;5.60;;;4.70;;
9409;SDS011;4744;52.576;13.568;2022-08-14T08:35:51;4.25;;;3.95;;
9409;SDS011;4744;52.576;13.568;2022-08-14T08:38:21;4.60;;;4.20;;
9409;SDS011;4744;52.576;13.568;2022-08-14T08:40:52;4.95;;;4.40;;
9409;SDS011;4744;52.576;13.568;2022-08-14T08:43:21;5.38;;;4.80;;
9409;SDS011;4744;52.576;13.568;2022-08-14T08:45:52;4.85;;;4.47;;
9409;SDS011;4744;52.576;13.568;2022-08-14T08:48:20;4.82;;;4.00;;
9409;SDS011;4744;52.576;13.568;2022-08-14T08:50:48;6.07;;;4.63;;
9409;SDS011;4744;52.576;13.568;2022-08-14T08:53:15;4.53;;;4.13;;
9409;SDS011;4744;52.576;13.568;2022-08-14T08:55:43;4.55;;;4.18;;
9409;SDS011;4744;52.576;13.568;2022-08-14T08:58:11;4.55;;;4.13;;
9409;SDS011;4744;52.576;13.568;2022-08-14T09:00:40;4.10;;;3.67;;
9409;SDS011;4744;52.576;13.568;2022-08-14T09:03:09;3.88;;;3.58;;
9409;SDS011;4744;52.576;13.568;2022-08-14T09:05:47;6.05;;;3.70;;
9409;SDS011;4744;52.576;13.568;2022-08-14T09:08:17;4.05;;;3.75;;
9409;SDS011;4744;52.576;13.568;2022-08-14T09:10:46;3.80;;;3.47;;
9409;SDS011;4744;52.576;13.568;2022-08-14T09:13:13;3.72;;;3.42;;
9409;SDS011;4744;52.576;13.568;2022-08-14T09:15:41;4.25;;;3.50;;
9409;SDS011;4744;52.576;13.568;2022-08-14T09:18:11;3.30;;;3.10;;
9409;SDS011;4744;52.576;13.568;2022-08-14T09:20:39;3.95;;;3.30;;
9409;SDS011;4744;52.576;13.568;2022-08-14T09:23:07;5.03;;;3.50;;
9409;SDS011;4744;52.576;13.568;2022-08-14T09:25:35;3.17;;;2.97;;
9409;SDS011;4744;52.576;13.568;2022-08-14T09:28:04;3.83;;;3.00;;
9409;SDS011;4744;52.576;13.568;2022-08-14T09:30:33;3.47;;;2.90;;
9409;SDS011;4744;52.576;13.568;2022-08-14T09:35:59;2.63;;;2.53;;
9409;SDS011;4744;52.576;13.568;2022-08-14T09:38:35;4.30;;;2.67;;
9409;SDS011;4744;52.576;13.568;2022-08-14T09:41:12;2.85;;;2.55;;
9409;SDS011;4744;52.576;13.568;2022-08-14T09:43:50;7.47;;;2.72;;
9409;SDS011;4744;52.576;13.568;2022-08-14T09:46:24;2.80;;;2.60;;
9409;SDS011;4744;52.576;13.568;2022-08-14T09:49:02;4.20;;;2.60;;
9409;SDS011;4744;52.576;13.568;2022-08-14T09:51:30;2.78;;;2.58;;
9409;SDS011;4744;52.576;13.568;2022-08-14T09:53:59;2.80;;;2.60;;
9409;SDS011;4744;52.576;13.568;2022-08-14T09:56:41;6.10;;;2.63;;
9409;SDS011;4744;52.576;13.568;2022-08-14T09:59:11;2.92;;;2.72;;
9409;SDS011;4744;52.576;13.568;2022-08-14T10:01:40;2.65;;;2.45;;
9409;SDS011;4744;52.576;13.568;2022-08-14T10:04:16;3.53;;;2.35;;
9409;SDS011;4744;52.576;13.568;2022-08-14T10:06:44;4.53;;;2.90;;
9409;SDS011;4744;52.576;13.568;2022-08-14T10:09:12;3.72;;;2.50;;
9409;SDS011;4744;52.576;13.568;2022-08-14T10:11:40;2.90;;;2.70;;
9409;SDS011;4744;52.576;13.568;2022-08-14T10:14:19;3.08;;;2.63;;
9409;SDS011;4744;52.576;13.568;2022-08-14T10:16:49;2.50;;;2.30;;
9409;SDS011;4744;52.576;13.568;2022-08-14T10:19:18;3.22;;;2.70;;
9409;SDS011;4744;52.576;13.568;2022-08-14T10:21:55;3.00;;;2.70;;
9409;SDS011;4744;52.576;13.568;2022-08-14T10:24:25;2.97;;;2.70;;
9409;SDS011;4744;52.576;13.568;2022-08-14T10:26:53;3.22;;;2.75;;
9409;SDS011;4744;52.576;13.568;2022-08-14T10:29:29;2.70;;;2.50;;
9409;SDS011;4744;52.576;13.568;2022-08-14T10:31:58;2.92;;;2.40;;
9409;SDS011;4744;52.576;13.568;2022-08-14T10:34:29;2.92;;;2.50;;
9409;SDS011;4744;52.576;13.568;2022-08-14T10:37:01;2.90;;;2.70;;
9409;SDS011;4744;52.576;13.568;2022-08-14T10:39:31;4.57;;;2.75;;
9409;SDS011;4744;52.576;13.568;2022-08-14T10:42:00;5.75;;;2.97;;
9409;SDS011;4744;52.576;13.568;2022-08-14T10:44:32;3.00;;;2.80;;
9409;SDS011;4744;52.576;13.568;2022-08-14T10:47:03;3.20;;;2.78;;
9409;SDS011;4744;52.576;13.568;2022-08-14T10:49:31;4.85;;;2.63;;
9409;SDS011;4744;52.576;13.568;2022-08-14T10:52:01;2.95;;;2.75;;
9409;SDS011;4744;52.576;13.568;2022-08-14T10:54:32;4.00;;;3.00;;
9409;SDS011;4744;52.576;13.568;2022-08-14T10:57:10;4.68;;;2.80;;
9409;SDS011;4744;52.576;13.568;2022-08-14T10:59:47;4.10;;;2.60;;
9409;SDS011;4744;52.576;13.568;2022-08-14T11:02:17;2.78;;;2.53;;
9409;SDS011;4744;52.576;13.568;2022-08-14T11:04:57;2.80;;;2.60;;
9409;SDS011;4744;52.576;13.568;2022-08-14T11:07:25;2.75;;;2.53;;
9409;SDS011;4744;52.576;13.568;2022-08-14T11:09:53;2.80;;;2.60;;
9409;SDS011;4744;52.576;13.568;2022-08-14T11:12:21;2.65;;;2.45;;
9409;SDS011;4744;52.576;13.568;2022-08-14T11:14:51;2.53;;;2.42;;
9409;SDS011;4744;52.576;13.568;2022-08-14T11:17:21;3.60;;;2.50;;
9409;SDS011;4744;52.576;13.568;2022-08-14T11:19:50;2.97;;;2.72;;
9409;SDS011;4744;52.576;13.568;2022-08-14T11:22:20;4.05;;;2.72;;
9409;SDS011;4744;52.576;13.568;2022-08-14T11:24:50;2.88;;;2.47;;
9409;SDS011;4744;52.576;13.568;2022-08-14T11:27:17;4.10;;;2.60;;
9409;SDS011;4744;52.576;13.568;2022-08-14T11:29:45;3.63;;;2.70;;
9409;SDS011;4744;52.576;13.568;2022-08-14T11:32:15;3.58;;;2.67;;
9409;SDS011;4744;52.576;13.568;2022-08-14T11:34:44;3.25;;;2.95;;
9409;SDS011;4744;52.576;13.568;2022-08-14T11:37:11;5.22;;;3.03;;
9409;SDS011;4744;52.576;13.568;2022-08-14T11:39:38;4.95;;;2.67;;
9409;SDS011;4744;52.576;13.568;2022-08-14T11:42:06;3.50;;;3.13;;
9409;SDS011;4744;52.576;13.568;2022-08-14T11:44:44;3.40;;;3.20;;
9409;SDS011;4744;52.576;13.568;2022-08-14T11:47:11;3.22;;;2.92;;
9409;SDS011;4744;52.576;13.568;2022-08-14T11:49:44;3.90;;;3.00;;
9409;SDS011;4744;52.576;13.568;2022-08-14T11:52:12;3.40;;;3.10;;
9409;SDS011;4744;52.576;13.568;2022-08-14T11:54:39;2.97;;;2.78;;
9409;SDS011;4744;52.576;13.568;2022-08-14T11:57:12;3.22;;;2.92;;
9409;SDS011;4744;52.576;13.568;2022-08-14T11:59:39;3.20;;;3.00;;
9409;SDS011;4744;52.576;13.568;2022-08-14T12:02:07;4.15;;;2.67;;
9409;SDS011;4744;52.576;13.568;2022-08-14T12:04:35;2.90;;;2.70;;
9409;SDS011;4744;52.576;13.568;2022-08-14T12:07:14;3.53;;;2.70;;
9409;SDS011;4744;52.576;13.568;2022-08-14T12:09:41;3.75;;;2.47;;
9409;SDS011;4744;52.576;13.568;2022-08-14T12:12:14;3.70;;;2.63;;
9409;SDS011;4744;52.576;13.568;2022-08-14T12:14:48;2.47;;;2.38;;
9409;SDS011;4744;52.576;13.568;2022-08-14T12:17:20;5.88;;;2.80;;
9409;SDS011;4744;52.576;13.568;2022-08-14T12:19:50;2.33;;;2.22;;
9409;SDS011;4744;52.576;13.568;2022-08-14T12:22:20;4.32;;;2.88;;
9409;SDS011;4744;52.576;13.568;2022-08-14T12:25:01;2.75;;;2.55;;
9409;SDS011;4744;52.576;13.568;2022-08-14T12:27:36;3.58;;;2.50;;
9409;SDS011;4744;52.576;13.568;2022-08-14T12:30:05;3.88;;;2.63;;
9409;SDS011;4744;52.576;13.568;2022-08-14T12:32:39;4.72;;;2.70;;
9409;SDS011;4744;52.576;13.568;2022-08-14T12:35:07;3.28;;;2.78;;
9409;SDS011;4744;52.576;13.568;2022-08-14T12:37:36;3.25;;;2.70;;
9409;SDS011;4744;52.576;13.568;2022-08-14T12:40:08;2.95;;;2.60;;
9409;SDS011;4744;52.576;13.568;2022-08-14T12:42:36;3.17;;;2.88;;
9409;SDS011;4744;52.576;13.568;2022-08-14T12:45:03;3.45;;;3.15;;
9409;SDS011;4744;52.576;13.568;2022-08-14T12:47:37;10.27;;;2.70;;
9409;SDS011;4744;52.576;13.568;2022-08-14T12:50:04;2.85;;;2.75;;
9409;SDS011;4744;52.576;13.568;2022-08-14T12:52:32;2.88;;;2.50;;
9409;SDS011;4744;52.576;13.568;2022-08-14T12:55:02;4.50;;;2.70;;
9409;SDS011;4744;52.576;13.568;2022-08-14T12:57:34;2.78;;;2.58;;
9409;SDS011;4744;52.576;13.568;2022-08-14T13:00:06;3.60;;;2.47;;
9409;SDS011;4744;52.576;13.568;2022-08-14T13:02:36;3.72;;;2.78;;
9409;SDS011;4744;52.576;13.568;2022-08-14T13:05:05;2.90;;;2.47;;
9409;SDS011;4744;52.576;13.568;2022-08-14T13:07:34;2.70;;;2.50;;
9409;SDS011;4744;52.576;13.568;2022-08-14T13:10:06;2.58;;;2.47;;
9409;SDS011;4744;52.576;13.568;2022-08-14T13:12:35;2.75;;;2.60;;
9409;SDS011;4744;52.576;13.568;2022-08-14T13:15:04;3.10;;;2.80;;
9409;SDS011;4744;52.576;13.568;2022-08-14T13:17:35;3.10;;;2.90;;
9409;SDS011;4744;52.576;13.568;2022-08-14T13:20:06;2.90;;;2.70;;
9409;SDS011;4744;52.576;13.568;2022-08-14T13:22:35;2.90;;;2.70;;
9409;SDS011;4744;52.576;13.568;2022-08-14T13:25:04;2.60;;;2.50;;
9409;SDS011;4744;52.576;13.568;2022-08-14T13:27:33;2.70;;;2.50;;
9409;SDS011;4744;52.576;13.568;2022-08-14T13:30:01;2.80;;;2.60;;
9409;SDS011;4744;52.576;13.568;2022-08-14T13:32:30;2.75;;;2.40;;
9409;SDS011;4744;52.576;13.568;2022-08-14T13:34:57;3.47;;;2.53;;
9409;SDS011;4744;52.576;13.568;2022-08-14T13:37:25;2.63;;;2.45;;
9409;SDS011;4744;52.576;13.568;2022-08-14T13:39:55;3.90;;;2.35;;
9409;SDS011;4744;52.576;13.568;2022-08-14T13:42:24;4.15;;;2.50;;
9409;SDS011;4744;52.576;13.568;2022-08-14T13:44:53;2.58;;;2.38;;
9409;SDS011;4744;52.576;13.568;2022-08-14T13:47:21;2.80;;;2.60;;
9409;SDS011;4744;52.576;13.568;2022-08-14T13:49:50;2.63;;;2.40;;
9409;SDS011;4744;52.576;13.568;2022-08-14T13:52:18;2.70;;;2.42;;
9409;SDS011;4744;52.576;13.568;2022-08-14T13:54:46;2.45;;;2.30;;
9409;SDS011;4744;52.576;13.568;2022-08-14T13:57:15;2.83;;;2.58;;
9409;SDS011;4744;52.576;13.568;2022-08-14T13:59:44;2.30;;;2.20;;
9409;SDS011;4744;52.576;13.568;2022-08-14T14:02:14;2.50;;;2.30;;
9409;SDS011;4744;52.576;13.568;2022-08-14T14:04:43;2.65;;;2.45;;
9409;SDS011;4744;52.576;13.568;2022-08-14T14:07:12;2.70;;;2.50;;
9409;SDS011;4744;52.576;13.568;2022-08-14T14:09:41;3.47;;;2.60;;
9409;SDS011;4744;52.576;13.568;2022-08-14T14:12:11;4.97;;;2.70;;
9409;SDS011;4744;52.576;13.568;2022-08-14T14:14:40;3.45;;;2.58;;
9409;SDS011;4744;52.576;13.568;2022-08-14T14:17:09;2.95;;;2.65;;
9409;SDS011;4744;52.576;13.568;2022-08-14T14:19:39;2.30;;;2.20;;
9409;SDS011;4744;52.576;13.568;2022-08-14T14:22:11;2.42;;;2.30;;
9409;SDS011;4744;52.576;13.568;2022-08-14T14:24:40;2.50;;;2.30;;
9409;SDS011;4744;52.576;13.568;2022-08-14T14:27:07;2.67;;;2.47;;
9409;SDS011;4744;52.576;13.568;2022-08-14T14:29:34;2.58;;;2.42;;
9409;SDS011;4744;52.576;13.568;2022-08-14T14:32:02;2.28;;;2.17;;
9409;SDS011;4744;52.576;13.568;2022-08-14T14:34:31;2.28;;;2.13;;
9409;SDS011;4744;52.576;13.568;2022-08-14T14:37:01;2.58;;;2.38;;
9409;SDS011;4744;52.576;13.568;2022-08-14T14:39:30;3.08;;;2.10;;
9409;SDS011;4744;52.576;13.568;2022-08-14T14:41:58;2.38;;;2.17;;
9409;SDS011;4744;52.576;13.568;2022-08-14T14:44:32;2.55;;;2.05;;
9409;SDS011;4744;52.576;13.568;2022-08-14T14:47:05;2.40;;;2.20;;
9409;SDS011;4744;52.576;13.568;2022-08-14T14:49:35;2.08;;;1.92;;
9409;SDS011;4744;52.576;13.568;2022-08-14T14:52:04;2.20;;;2.10;;
9409;SDS011;4744;52.576;13.568;2022-08-14T14:54:33;3.15;;;2.22;;
9409;SDS011;4744;52.576;13.568;2022-08-14T14:57:00;2.95;;;2.00;;
9409;SDS011;4744;52.576;13.568;2022-08-14T14:59:28;2.05;;;1.95;;
9409;SDS011;4744;52.576;13.568;2022-08-14T15:01:58;2.10;;;2.00;;
9409;SDS011;4744;52.576;13.568;2022-08-14T15:04:30;2.15;;;2.05;;
9409;SDS011;4744;52.576;13.568;2022-08-14T15:06:59;2.28;;;2.17;;
9409;SDS011;4744;52.576;13.568;2022-08-14T15:09:25;3.40;;;2.13;;
9409;SDS011;4744;52.576;13.568;2022-08-14T15:11:52;3.08;;;2.20;;
9409;SDS011;4744;52.576;13.568;2022-08-14T15:14:21;2.22;;;2.10;;
9409;SDS011;4744;52.576;13.568;2022-08-14T15:16:48;2.22;;;2.00;;